sensor_id;sensor_type;location;lat;lon;timestamp;pressure;altitude;pressure_sealevel;temperature;humidity
19576;BME280;41589;51.196;7.074;2022-10-16T00:02:05;98544.22;;;15.84;100.00
19576;BME280;41589;51.196;7.074;2022-10-16T00:07:05;98552.22;;;15.86;100.00
19576;BME280;41589;51.196;7.074;2022-10-16T00:12:05;98543.72;;;15.86;100.00
19576;BME280;41589;51.196;7.074;2022-10-16T00:17:07;98557.38;;;15.87;100.00
19576;BME280;41589;51.196;7.074;2022-10-16T00:22:07;98561.00;;;15.82;100.00
19576;BME280;41589;51.196;7.074;2022-10-16T00:27:08;98567.19;;;15.86;100.00
19576;BME280;41589;51.196;7.074;2022-10-16T00:32:08;98582.91;;;15.82;100.00
19576;BME280;41589;51.196;7.074;2022-10-16T00:37:09;98570.78;;;15.81;100.00
19576;BME280;41589;51.196;7.074;2022-10-16T00:42:15;98578.75;;;15.72;100.00
19576;BME280;41589;51.196;7.074;2022-10-16T00:47:21;98569.69;;;15.68;100.00
19576;BME280;41589;51.196;7.074;2022-10-16T00:52:22;98560.13;;;15.65;100.00
19576;BME280;41589;51.196;7.074;2022-10-16T00:57:23;98570.44;;;15.63;100.00
19576;BME280;41589;51.196;7.074;2022-10-16T01:02:24;98561.44;;;15.64;100.00
19576;BME280;41589;51.196;7.074;2022-10-16T01:07:39;98566.84;;;15.62;100.00
19576;BME280;41589;51.196;7.074;2022-10-16T01:12:49;98561.91;;;15.57;100.00
19576;BME280;41589;51.196;7.074;2022-10-16T01:23:28;98572.75;;;15.53;100.00
19576;BME280;41589;51.196;7.074;2022-10-16T01:28:34;98580.19;;;15.50;100.00
19576;BME280;41589;51.196;7.074;2022-10-16T01:33:43;98590.00;;;15.55;100.00
19576;BME280;41589;51.196;7.074;2022-10-16T01:38:48;98568.63;;;15.59;100.00
19576;BME280;41589;51.196;7.074;2022-10-16T01:44:02;98583.81;;;15.56;100.00
19576;BME280;41589;51.196;7.074;2022-10-16T01:49:05;98579.44;;;15.55;100.00
19576;BME280;41589;51.196;7.074;2022-10-16T01:54:08;98582.78;;;15.54;100.00
19576;BME280;41589;51.196;7.074;2022-10-16T01:59:15;98579.97;;;15.54;100.00
19576;BME280;41589;51.196;7.074;2022-10-16T02:04:26;98596.97;;;15.54;100.00
19576;BME280;41589;51.196;7.074;2022-10-16T02:09:27;98589.50;;;15.51;100.00
19576;BME280;41589;51.196;7.074;2022-10-16T02:14:29;98580.47;;;15.52;100.00
19576;BME280;41589;51.196;7.074;2022-10-16T02:19:30;98578.94;;;15.51;100.00
19576;BME280;41589;51.196;7.074;2022-10-16T02:24:52;98584.09;;;15.53;100.00
19576;BME280;41589;51.196;7.074;2022-10-16T02:30:00;98596.97;;;15.54;100.00
19576;BME280;41589;51.196;7.074;2022-10-16T02:35:08;98600.06;;;15.56;100.00
19576;BME280;41589;51.196;7.074;2022-10-16T02:40:10;98601.63;;;15.51;100.00
19576;BME280;41589;51.196;7.074;2022-10-16T02:45:11;98593.13;;;15.57;100.00
19576;BME280;41589;51.196;7.074;2022-10-16T02:50:14;98603.16;;;15.52;100.00
19576;BME280;41589;51.196;7.074;2022-10-16T02:55:15;98588.97;;;15.58;100.00
19576;BME280;41589;51.196;7.074;2022-10-16T03:00:17;98587.97;;;15.61;100.00
19576;BME280;41589;51.196;7.074;2022-10-16T03:05:17;98585.13;;;15.61;100.00
19576;BME280;41589;51.196;7.074;2022-10-16T03:10:17;98591.56;;;15.56;100.00
19576;BME280;41589;51.196;7.074;2022-10-16T03:15:18;98611.16;;;15.59;100.00
19576;BME280;41589;51.196;7.074;2022-10-16T03:20:18;98592.84;;;15.60;100.00
19576;BME280;41589;51.196;7.074;2022-10-16T03:25:19;98591.03;;;15.57;100.00
19576;BME280;41589;51.196;7.074;2022-10-16T03:30:19;98577.84;;;15.49;100.00
19576;BME280;41589;51.196;7.074;2022-10-16T03:35:20;98598.00;;;15.51;100.00
19576;BME280;41589;51.196;7.074;2022-10-16T03:40:21;98607.00;;;15.49;100.00
19576;BME280;41589;51.196;7.074;2022-10-16T03:45:21;98604.97;;;15.55;100.00
19576;BME280;41589;51.196;7.074;2022-10-16T03:50:21;98603.44;;;15.60;100.00
19576;BME280;41589;51.196;7.074;2022-10-16T03:55:22;98597.50;;;15.52;100.00
19576;BME280;41589;51.196;7.074;2022-10-16T04:00:22;98614.22;;;15.50;100.00
19576;BME280;41589;51.196;7.074;2022-10-16T04:05:22;98624.25;;;15.46;100.00
19576;BME280;41589;51.196;7.074;2022-10-16T04:10:23;98625.81;;;15.41;100.00
19576;BME280;41589;51.196;7.074;2022-10-16T04:15:24;98620.84;;;15.30;100.00
19576;BME280;41589;51.196;7.074;2022-10-16T04:20:25;98640.72;;;15.36;100.00
19576;BME280;41589;51.196;7.074;2022-10-16T04:25:25;98640.47;;;15.40;100.00
19576;BME280;41589;51.196;7.074;2022-10-16T04:30:26;98639.13;;;15.29;100.00
19576;BME280;41589;51.196;7.074;2022-10-16T04:35:26;98659.25;;;15.31;100.00
19576;BME280;41589;51.196;7.074;2022-10-16T04:40:27;98657.72;;;15.30;100.00
19576;BME280;41589;51.196;7.074;2022-10-16T04:45:27;98654.56;;;15.23;100.00
19576;BME280;41589;51.196;7.074;2022-10-16T04:50:27;98650.19;;;15.22;100.00
19576;BME280;41589;51.196;7.074;2022-10-16T04:55:39;98653.75;;;15.17;100.00
19576;BME280;41589;51.196;7.074;2022-10-16T05:00:39;98664.88;;;15.20;100.00
19576;BME280;41589;51.196;7.074;2022-10-16T05:05:44;98681.09;;;15.20;100.00
19576;BME280;41589;51.196;7.074;2022-10-16T05:10:44;98666.63;;;15.18;100.00
19576;BME280;41589;51.196;7.074;2022-10-16T05:15:48;98673.56;;;15.11;100.00
19576;BME280;41589;51.196;7.074;2022-10-16T05:20:48;98699.84;;;15.12;100.00
19576;BME280;41589;51.196;7.074;2022-10-16T05:25:53;98690.59;;;15.17;100.00
19576;BME280;41589;51.196;7.074;2022-10-16T05:30:55;98705.47;;;15.06;100.00
19576;BME280;41589;51.196;7.074;2022-10-16T05:35:56;98715.81;;;15.09;100.00
19576;BME280;41589;51.196;7.074;2022-10-16T05:40:56;98700.63;;;15.12;100.00
19576;BME280;41589;51.196;7.074;2022-10-16T05:46:05;98707.00;;;15.07;100.00
19576;BME280;41589;51.196;7.074;2022-10-16T05:51:11;98728.13;;;15.06;100.00
19576;BME280;41589;51.196;7.074;2022-10-16T05:56:22;98733.53;;;15.04;100.00
19576;BME280;41589;51.196;7.074;2022-10-16T06:01:27;98740.31;;;15.12;100.00
19576;BME280;41589;51.196;7.074;2022-10-16T06:06:42;98738.25;;;15.13;100.00
19576;BME280;41589;51.196;7.074;2022-10-16T06:11:47;98757.13;;;15.21;100.00
19576;BME280;41589;51.196;7.074;2022-10-16T06:16:51;98761.28;;;15.26;100.00
19576;BME280;41589;51.196;7.074;2022-10-16T06:22:06;98772.16;;;15.33;100.00
19576;BME280;41589;51.196;7.074;2022-10-16T06:27:09;98775.50;;;15.31;100.00
19576;BME280;41589;51.196;7.074;2022-10-16T06:32:18;98759.34;;;15.43;100.00
19576;BME280;41589;51.196;7.074;2022-10-16T06:37:21;98780.31;;;15.57;100.00
19576;BME280;41589;51.196;7.074;2022-10-16T06:42:24;98773.94;;;15.62;100.00
19576;BME280;41589;51.196;7.074;2022-10-16T06:47:27;98772.66;;;15.69;100.00
19576;BME280;41589;51.196;7.074;2022-10-16T06:52:39;98806.28;;;15.81;100.00
19576;BME280;41589;51.196;7.074;2022-10-16T06:57:43;98809.13;;;15.81;100.00
19576;BME280;41589;51.196;7.074;2022-10-16T07:02:44;98816.44;;;15.94;100.00
19576;BME280;41589;51.196;7.074;2022-10-16T07:07:55;98828.91;;;16.07;100.00
19576;BME280;41589;51.196;7.074;2022-10-16T07:12:56;98833.09;;;16.17;100.00
19576;BME280;41589;51.196;7.074;2022-10-16T07:18:08;98844.97;;;16.16;100.00
19576;BME280;41589;51.196;7.074;2022-10-16T07:23:09;98851.94;;;16.21;100.00
19576;BME280;41589;51.196;7.074;2022-10-16T07:28:20;98852.44;;;16.13;99.63
19576;BME280;41589;51.196;7.074;2022-10-16T07:33:27;98866.13;;;16.15;100.00
19576;BME280;41589;51.196;7.074;2022-10-16T07:38:37;98878.00;;;16.19;100.00
19576;BME280;41589;51.196;7.074;2022-10-16T07:43:59;98879.59;;;16.26;100.00
19576;BME280;41589;51.196;7.074;2022-10-16T07:49:04;98872.31;;;16.13;98.65
19576;BME280;41589;51.196;7.074;2022-10-16T07:54:14;98893.44;;;16.12;99.79
19576;BME280;41589;51.196;7.074;2022-10-16T07:59:16;98904.59;;;16.22;98.95
19576;BME280;41589;51.196;7.074;2022-10-16T08:04:28;98911.69;;;16.43;100.00
19576;BME280;41589;51.196;7.074;2022-10-16T08:09:38;98932.53;;;16.66;99.21
19576;BME280;41589;51.196;7.074;2022-10-16T08:14:38;98926.69;;;16.92;99.51
19576;BME280;41589;51.196;7.074;2022-10-16T08:19:38;98936.50;;;16.96;97.26
19576;BME280;41589;51.196;7.074;2022-10-16T08:24:39;98937.34;;;17.14;97.75
19576;BME280;41589;51.196;7.074;2022-10-16T08:29:39;98945.16;;;17.30;97.33
19576;BME280;41589;51.196;7.074;2022-10-16T08:34:40;98945.69;;;17.34;95.74
19576;BME280;41589;51.196;7.074;2022-10-16T08:39:40;98956.03;;;17.48;95.67
19576;BME280;41589;51.196;7.074;2022-10-16T08:49:56;98970.34;;;17.65;95.26
19576;BME280;41589;51.196;7.074;2022-10-16T08:54:57;98988.72;;;17.75;93.27
19576;BME280;41589;51.196;7.074;2022-10-16T09:00:12;98970.88;;;18.03;97.68
19576;BME280;41589;51.196;7.074;2022-10-16T09:15:58;98989.25;;;18.46;93.42
19576;BME280;41589;51.196;7.074;2022-10-16T09:26:13;98989.22;;;18.63;91.53
19576;BME280;41589;51.196;7.074;2022-10-16T09:31:19;98986.88;;;18.67;89.99
19576;BME280;41589;51.196;7.074;2022-10-16T09:36:21;99002.97;;;18.65;90.13
19576;BME280;41589;51.196;7.074;2022-10-16T09:41:23;99010.75;;;18.59;86.20
19576;BME280;41589;51.196;7.074;2022-10-16T09:46:33;99005.81;;;18.59;88.32
19576;BME280;41589;51.196;7.074;2022-10-16T09:51:35;99009.69;;;18.67;87.92
19576;BME280;41589;51.196;7.074;2022-10-16T09:56:37;99002.91;;;18.87;88.00
19576;BME280;41589;51.196;7.074;2022-10-16T10:01:41;99011.44;;;18.82;85.96
19576;BME280;41589;51.196;7.074;2022-10-16T10:06:45;99002.66;;;18.80;85.42
19576;BME280;41589;51.196;7.074;2022-10-16T10:11:58;99009.84;;;19.03;89.38
19576;BME280;41589;51.196;7.074;2022-10-16T10:38:27;99007.13;;;19.33;82.86
19576;BME280;41589;51.196;7.074;2022-10-16T10:49:05;99017.47;;;19.47;83.57
19576;BME280;41589;51.196;7.074;2022-10-16T10:54:15;99023.88;;;19.59;80.99
19576;BME280;41589;51.196;7.074;2022-10-16T11:09:55;99030.38;;;19.54;78.79
19576;BME280;41589;51.196;7.074;2022-10-16T11:15:07;99028.28;;;19.60;79.58
19576;BME280;41589;51.196;7.074;2022-10-16T11:20:32;99029.22;;;19.79;83.13
19576;BME280;41589;51.196;7.074;2022-10-16T11:25:34;99040.34;;;19.83;79.73
19576;BME280;41589;51.196;7.074;2022-10-16T11:30:42;99031.03;;;20.18;83.92
19576;BME280;41589;51.196;7.074;2022-10-16T11:35:50;99037.84;;;20.39;82.10
19576;BME280;41589;51.196;7.074;2022-10-16T11:40:55;99039.50;;;20.29;79.53
19576;BME280;41589;51.196;7.074;2022-10-16T11:46:03;99035.59;;;20.62;80.27
19576;BME280;41589;51.196;7.074;2022-10-16T11:51:16;99048.47;;;20.44;81.58
19576;BME280;41589;51.196;7.074;2022-10-16T11:56:20;99043.13;;;20.60;79.51
19576;BME280;41589;51.196;7.074;2022-10-16T12:01:42;99041.25;;;20.68;82.92
19576;BME280;41589;51.196;7.074;2022-10-16T12:06:48;99043.00;;;21.01;81.76
19576;BME280;41589;51.196;7.074;2022-10-16T12:11:50;99044.53;;;21.02;79.58
19576;BME280;41589;51.196;7.074;2022-10-16T12:16:55;99060.06;;;20.82;78.47
19576;BME280;41589;51.196;7.074;2022-10-16T12:21:59;99067.84;;;20.57;76.07
19576;BME280;41589;51.196;7.074;2022-10-16T12:27:00;99058.16;;;20.66;79.04
19576;BME280;41589;51.196;7.074;2022-10-16T12:32:04;99047.31;;;20.59;75.86
19576;BME280;41589;51.196;7.074;2022-10-16T12:37:35;99065.13;;;20.40;77.76
19576;BME280;41589;51.196;7.074;2022-10-16T12:42:34;99061.78;;;20.36;77.47
19576;BME280;41589;51.196;7.074;2022-10-16T12:47:37;99058.47;;;20.32;77.94
19576;BME280;41589;51.196;7.074;2022-10-16T12:52:39;99059.94;;;20.39;78.38
19576;BME280;41589;51.196;7.074;2022-10-16T13:18:23;99058.84;;;20.47;79.14
19576;BME280;41589;51.196;7.074;2022-10-16T13:29:00;99063.34;;;20.37;74.04
19576;BME280;41589;51.196;7.074;2022-10-16T13:34:03;99071.13;;;20.42;74.72
19576;BME280;41589;51.196;7.074;2022-10-16T13:39:09;99070.91;;;20.35;73.11
19576;BME280;41589;51.196;7.074;2022-10-16T13:44:19;99058.91;;;20.42;76.05
19576;BME280;41589;51.196;7.074;2022-10-16T13:49:20;99066.34;;;20.51;75.01
19576;BME280;41589;51.196;7.074;2022-10-16T13:54:21;99058.81;;;20.53;76.35
19576;BME280;41589;51.196;7.074;2022-10-16T13:59:26;99056.53;;;20.46;76.10
19576;BME280;41589;51.196;7.074;2022-10-16T14:04:33;99070.59;;;20.68;77.61
19576;BME280;41589;51.196;7.074;2022-10-16T14:09:33;99069.03;;;20.73;76.12
19576;BME280;41589;51.196;7.074;2022-10-16T14:14:43;99060.19;;;20.71;77.71
19576;BME280;41589;51.196;7.074;2022-10-16T14:19:53;99080.38;;;20.54;77.98
19576;BME280;41589;51.196;7.074;2022-10-16T14:24:54;99083.03;;;20.46;75.89
19576;BME280;41589;51.196;7.074;2022-10-16T14:35:28;99065.56;;;20.50;79.67
19576;BME280;41589;51.196;7.074;2022-10-16T14:40:31;99065.41;;;20.42;77.17
19576;BME280;41589;51.196;7.074;2022-10-16T14:45:34;99074.78;;;20.37;75.89
19576;BME280;41589;51.196;7.074;2022-10-16T14:50:35;99050.59;;;20.38;76.03
19576;BME280;41589;51.196;7.074;2022-10-16T14:55:36;99059.91;;;20.44;76.63
19576;BME280;41589;51.196;7.074;2022-10-16T15:00:37;99081.00;;;20.41;75.84
19576;BME280;41589;51.196;7.074;2022-10-16T15:05:37;99092.47;;;20.36;75.90
19576;BME280;41589;51.196;7.074;2022-10-16T15:10:40;99084.44;;;20.34;76.62
19576;BME280;41589;51.196;7.074;2022-10-16T15:15:45;99072.78;;;20.27;76.90
19576;BME280;41589;51.196;7.074;2022-10-16T15:20:48;99089.72;;;20.19;76.67
19576;BME280;41589;51.196;7.074;2022-10-16T15:25:52;99081.34;;;20.27;77.60
19576;BME280;41589;51.196;7.074;2022-10-16T15:30:55;99079.59;;;20.18;76.69
19576;BME280;41589;51.196;7.074;2022-10-16T15:35:56;99083.22;;;20.18;76.92
19576;BME280;41589;51.196;7.074;2022-10-16T15:40:57;99075.25;;;20.11;77.02
19576;BME280;41589;51.196;7.074;2022-10-16T15:46:05;99069.28;;;20.04;79.50
19576;BME280;41589;51.196;7.074;2022-10-16T15:51:07;99058.75;;;19.87;76.87
19576;BME280;41589;51.196;7.074;2022-10-16T15:56:09;99053.16;;;19.71;77.20
19576;BME280;41589;51.196;7.074;2022-10-16T16:01:11;99049.81;;;19.61;76.60
19576;BME280;41589;51.196;7.074;2022-10-16T16:06:13;99043.06;;;19.64;78.48
19576;BME280;41589;51.196;7.074;2022-10-16T16:11:15;99041.53;;;19.57;79.13
19576;BME280;41589;51.196;7.074;2022-10-16T16:16:16;99051.97;;;19.49;78.65
19576;BME280;41589;51.196;7.074;2022-10-16T16:21:17;99052.22;;;19.46;79.49
19576;BME280;41589;51.196;7.074;2022-10-16T16:26:28;99045.53;;;19.38;80.23
19576;BME280;41589;51.196;7.074;2022-10-16T16:31:32;99052.31;;;19.29;79.90
19576;BME280;41589;51.196;7.074;2022-10-16T16:36:34;99048.13;;;19.24;79.93
19576;BME280;41589;51.196;7.074;2022-10-16T16:41:34;99045.31;;;19.13;79.77
19576;BME280;41589;51.196;7.074;2022-10-16T16:46:35;99050.28;;;19.07;80.46
19576;BME280;41589;51.196;7.074;2022-10-16T16:51:36;99056.25;;;19.03;80.89
19576;BME280;41589;51.196;7.074;2022-10-16T16:56:37;99075.19;;;19.01;81.14
19576;BME280;41589;51.196;7.074;2022-10-16T17:01:37;99081.41;;;18.99;81.17
19576;BME280;41589;51.196;7.074;2022-10-16T17:06:37;99083.78;;;18.95;81.66
19576;BME280;41589;51.196;7.074;2022-10-16T17:11:38;99079.88;;;18.93;81.71
19576;BME280;41589;51.196;7.074;2022-10-16T17:16:41;99087.66;;;18.98;83.32
19576;BME280;41589;51.196;7.074;2022-10-16T17:21:47;99089.22;;;18.88;82.20
19576;BME280;41589;51.196;7.074;2022-10-16T17:26:48;99097.25;;;18.89;83.26
19576;BME280;41589;51.196;7.074;2022-10-16T17:31:48;99105.53;;;18.93;84.02
19576;BME280;41589;51.196;7.074;2022-10-16T17:36:49;99109.69;;;18.92;83.87
19576;BME280;41589;51.196;7.074;2022-10-16T17:41:49;99102.19;;;18.89;83.82
19576;BME280;41589;51.196;7.074;2022-10-16T17:46:51;99106.06;;;18.91;84.18
19576;BME280;41589;51.196;7.074;2022-10-16T17:51:53;99107.34;;;18.90;84.64
19576;BME280;41589;51.196;7.074;2022-10-16T17:56:53;99117.22;;;18.95;84.50
19576;BME280;41589;51.196;7.074;2022-10-16T18:01:54;99120.56;;;18.99;85.44
19576;BME280;41589;51.196;7.074;2022-10-16T18:06:54;99120.81;;;19.01;85.15
19576;BME280;41589;51.196;7.074;2022-10-16T18:11:55;99113.06;;;18.96;84.90
19576;BME280;41589;51.196;7.074;2022-10-16T18:17:01;99112.28;;;18.90;85.74
19576;BME280;41589;51.196;7.074;2022-10-16T18:22:01;99108.16;;;18.85;85.11
19576;BME280;41589;51.196;7.074;2022-10-16T18:27:02;99109.19;;;18.77;85.82
19576;BME280;41589;51.196;7.074;2022-10-16T18:32:02;99110.22;;;18.79;86.16
19576;BME280;41589;51.196;7.074;2022-10-16T18:37:03;99124.22;;;18.77;86.63
19576;BME280;41589;51.196;7.074;2022-10-16T18:42:03;99113.34;;;18.75;86.61
19576;BME280;41589;51.196;7.074;2022-10-16T18:47:03;99122.44;;;18.74;87.14
19576;BME280;41589;51.196;7.074;2022-10-16T18:52:04;99125.00;;;18.72;87.03
19576;BME280;41589;51.196;7.074;2022-10-16T18:57:05;99129.91;;;18.71;87.30
19576;BME280;41589;51.196;7.074;2022-10-16T19:02:05;99130.47;;;18.75;87.35
19576;BME280;41589;51.196;7.074;2022-10-16T19:07:06;99134.88;;;18.77;87.74
19576;BME280;41589;51.196;7.074;2022-10-16T19:12:06;99141.34;;;18.77;87.79
19576;BME280;41589;51.196;7.074;2022-10-16T19:17:07;99168.03;;;18.80;88.48
19576;BME280;41589;51.196;7.074;2022-10-16T19:22:07;99170.13;;;18.85;88.17
19576;BME280;41589;51.196;7.074;2022-10-16T19:27:13;99160.78;;;18.90;87.85
19576;BME280;41589;51.196;7.074;2022-10-16T19:32:13;99172.69;;;18.88;87.87
19576;BME280;41589;51.196;7.074;2022-10-16T19:37:14;99180.19;;;18.91;88.41
19576;BME280;41589;51.196;7.074;2022-10-16T19:42:14;99212.63;;;18.99;88.18
19576;BME280;41589;51.196;7.074;2022-10-16T19:47:14;99206.38;;;19.12;89.11
19576;BME280;41589;51.196;7.074;2022-10-16T19:52:15;99199.91;;;19.17;88.71
19576;BME280;41589;51.196;7.074;2022-10-16T19:57:16;99197.84;;;19.18;88.43
19576;BME280;41589;51.196;7.074;2022-10-16T20:02:16;99186.41;;;19.12;88.04
19576;BME280;41589;51.196;7.074;2022-10-16T20:07:16;99181.50;;;19.01;88.27
19576;BME280;41589;51.196;7.074;2022-10-16T20:12:17;99190.06;;;18.96;88.58
19576;BME280;41589;51.196;7.074;2022-10-16T20:17:18;99188.75;;;18.91;88.21
19576;BME280;41589;51.196;7.074;2022-10-16T20:22:18;99189.56;;;18.86;88.69
19576;BME280;41589;51.196;7.074;2022-10-16T20:27:18;99186.44;;;18.84;88.55
19576;BME280;41589;51.196;7.074;2022-10-16T20:32:18;99186.97;;;18.88;89.30
19576;BME280;41589;51.196;7.074;2022-10-16T20:37:19;99189.81;;;18.88;89.27
19576;BME280;41589;51.196;7.074;2022-10-16T20:42:19;99190.56;;;18.83;88.79
19576;BME280;41589;51.196;7.074;2022-10-16T20:47:19;99179.44;;;18.74;88.60
19576;BME280;41589;51.196;7.074;2022-10-16T20:52:20;99188.00;;;18.74;89.23
19576;BME280;41589;51.196;7.074;2022-10-16T20:57:20;99197.31;;;18.69;88.86
19576;BME280;41589;51.196;7.074;2022-10-16T21:02:21;99183.56;;;18.73;89.70
19576;BME280;41589;51.196;7.074;2022-10-16T21:07:21;99182.31;;;18.74;89.97
19576;BME280;41589;51.196;7.074;2022-10-16T21:12:25;99184.09;;;18.71;91.01
19576;BME280;41589;51.196;7.074;2022-10-16T21:17:26;99190.84;;;18.68;90.22
19576;BME280;41589;51.196;7.074;2022-10-16T21:22:30;99181.75;;;18.70;91.46
19576;BME280;41589;51.196;7.074;2022-10-16T21:27:35;99184.88;;;18.66;91.99
19576;BME280;41589;51.196;7.074;2022-10-16T21:32:36;99190.56;;;18.61;90.60
19576;BME280;41589;51.196;7.074;2022-10-16T21:37:37;99177.88;;;18.56;90.65
19576;BME280;41589;51.196;7.074;2022-10-16T21:42:37;99185.91;;;18.58;91.38
19576;BME280;41589;51.196;7.074;2022-10-16T21:47:37;99169.06;;;18.54;91.54
19576;BME280;41589;51.196;7.074;2022-10-16T21:52:38;99178.63;;;18.51;91.29
19576;BME280;41589;51.196;7.074;2022-10-16T21:57:38;99178.91;;;18.48;91.65
19576;BME280;41589;51.196;7.074;2022-10-16T22:02:38;99181.75;;;18.48;91.54
19576;BME280;41589;51.196;7.074;2022-10-16T22:07:39;99175.53;;;18.43;91.58
19576;BME280;41589;51.196;7.074;2022-10-16T22:12:39;99182.00;;;18.44;91.93
19576;BME280;41589;51.196;7.074;2022-10-16T22:17:40;99175.53;;;18.43;92.13
19576;BME280;41589;51.196;7.074;2022-10-16T22:22:41;99173.97;;;18.42;92.57
19576;BME280;41589;51.196;7.074;2022-10-16T22:27:41;99184.53;;;18.42;92.24
19576;BME280;41589;51.196;7.074;2022-10-16T22:32:41;99174.44;;;18.35;92.06
19576;BME280;41589;51.196;7.074;2022-10-16T22:37:42;99176.00;;;18.36;92.25
19576;BME280;41589;51.196;7.074;2022-10-16T22:42:42;99162.28;;;18.35;92.48
19576;BME280;41589;51.196;7.074;2022-10-16T22:47:42;99161.25;;;18.38;92.52
19576;BME280;41589;51.196;7.074;2022-10-16T22:52:43;99159.44;;;18.35;92.32
19576;BME280;41589;51.196;7.074;2022-10-16T22:57:43;99159.16;;;18.33;92.86
19576;BME280;41589;51.196;7.074;2022-10-16T23:02:44;99158.66;;;18.34;93.04
19576;BME280;41589;51.196;7.074;2022-10-16T23:07:45;99154.75;;;18.32;92.88
19576;BME280;41589;51.196;7.074;2022-10-16T23:12:45;99163.28;;;18.32;92.59
19576;BME280;41589;51.196;7.074;2022-10-16T23:17:46;99169.00;;;18.37;93.12
19576;BME280;41589;51.196;7.074;2022-10-16T23:22:46;99176.00;;;18.36;92.81
19576;BME280;41589;51.196;7.074;2022-10-16T23:27:46;99181.69;;;18.36;92.81
19576;BME280;41589;51.196;7.074;2022-10-16T23:32:47;99185.59;;;18.39;93.35
19576;BME280;41589;51.196;7.074;2022-10-16T23:37:47;99190.50;;;18.38;93.12
19576;BME280;41589;51.196;7.074;2022-10-16T23:42:47;99188.97;;;18.37;92.76
19576;BME280;41589;51.196;7.074;2022-10-16T23:47:48;99187.66;;;18.38;92.99
19576;BME280;41589;51.196;7.074;2022-10-16T23:52:48;99194.97;;;18.45;92.99
19576;BME280;41589;51.196;7.074;2022-10-16T23:57:48;99192.63;;;18.43;92.41
